Terminal Aerodrome Forecast
Issued by NWS

Home | Current Version | Previous Version | Text Only | Print | Product List | Glossary Off
Versions: 1 2 3 4 5 6 7 8 9 10 11 12 13 14 15 16 17 18 19 20 21 22 23 24 25 26 27

000
FTUS45 KGGW 260900 AAA
TAFOLF
TAF AMD
KOLF 260935Z 2610/2706 VRB05KT P6SM SCT025 BKN035
      TEMPO 2610/2614 00000KT 5SM BR FEW030 SCT100
     FM261500 34011KT P6SM BKN200
     FM270000 VRB04KT P6SM VCSH SCT080 BKN140=

USA.gov is the U.S. government's official web portal to all federal, state and local government web resources and services.